createdAt,value
2023-02-12T05:15:20.980Z,7.47
2023-02-12T05:16:21.012Z,7.44
2023-02-12T05:17:20.950Z,7.45
2023-02-12T05:18:21.031Z,7.44
2023-02-12T05:19:20.921Z,7.47
2023-02-12T05:20:20.901Z,7.47
2023-02-12T05:21:20.898Z,7.47
2023-02-12T05:22:20.878Z,7.47
2023-02-12T05:23:20.880Z,7.47
2023-02-12T05:24:20.851Z,7.47
2023-02-12T05:25:20.848Z,7.49
2023-02-12T05:26:20.846Z,7.47
2023-02-12T05:27:20.832Z,7.47
2023-02-12T05:28:20.831Z,7.47
2023-02-12T05:29:20.791Z,7.47
2023-02-12T05:30:20.779Z,7.47
2023-02-12T05:31:21.601Z,7.47
2023-02-12T05:32:20.790Z,7.45
2023-02-12T05:33:20.758Z,7.44
2023-02-12T05:34:20.729Z,7.45
2023-02-12T05:35:20.723Z,7.45
2023-02-12T05:36:20.714Z,7.45
2023-02-12T05:37:20.688Z,7.45
2023-02-12T05:38:20.689Z,7.45
2023-02-12T05:39:20.669Z,7.45
2023-02-12T05:40:20.656Z,7.45
2023-02-12T05:41:20.653Z,7.44
2023-02-12T05:42:20.625Z,7.41
2023-02-12T05:43:20.635Z,7.42
2023-02-12T05:44:20.612Z,7.41
2023-02-12T05:45:20.584Z,7.42
2023-02-12T05:46:20.603Z,7.42
2023-02-12T05:47:20.564Z,7.42
2023-02-12T05:48:20.580Z,7.42
2023-02-12T05:49:20.541Z,7.42
2023-02-12T05:50:20.524Z,7.44
2023-02-12T05:51:20.515Z,7.42
2023-02-12T05:52:20.493Z,7.44
2023-02-12T05:53:20.491Z,7.45
2023-02-12T05:54:20.463Z,7.44
2023-02-12T05:55:20.452Z,7.42
2023-02-12T05:56:20.455Z,7.40
2023-02-12T05:57:20.429Z,7.41
2023-02-12T05:58:20.435Z,7.40
2023-02-12T05:59:20.408Z,7.41
2023-02-12T06:00:20.391Z,7.40
2023-02-12T06:01:20.372Z,7.40
2023-02-12T06:02:20.408Z,7.40
2023-02-12T06:03:20.370Z,7.41
2023-02-12T06:04:20.413Z,7.41
2023-02-12T06:05:20.328Z,7.41
2023-02-12T06:06:20.324Z,7.42
2023-02-12T06:07:20.299Z,7.42
2023-02-12T06:08:20.301Z,7.42
2023-02-12T06:09:20.273Z,7.44
2023-02-12T06:10:20.268Z,7.45
2023-02-12T06:11:20.267Z,7.44
2023-02-12T06:12:20.238Z,7.44
2023-02-12T06:13:20.236Z,7.45
2023-02-12T06:14:20.227Z,7.42
2023-02-12T06:15:20.193Z,7.41
2023-02-12T06:16:20.258Z,7.41
2023-02-12T06:17:20.166Z,7.40
2023-02-12T06:18:20.168Z,7.38
2023-02-12T06:19:20.153Z,7.40
2023-02-12T06:20:20.138Z,7.38
2023-02-12T06:21:20.126Z,7.40
2023-02-12T06:22:20.114Z,7.38
2023-02-12T06:23:20.120Z,7.40
2023-02-12T06:24:20.105Z,7.38
2023-02-12T06:25:20.070Z,7.41
2023-02-12T06:26:20.085Z,7.40
2023-02-12T06:27:20.055Z,7.41
2023-02-12T06:28:20.065Z,7.41
2023-02-12T06:29:20.027Z,7.41
2023-02-12T06:30:20.016Z,7.42
2023-02-12T06:31:20.136Z,7.41
2023-02-12T06:32:20.079Z,7.40
2023-02-12T06:33:19.972Z,7.41
2023-02-12T06:34:19.985Z,7.40
2023-02-12T06:35:19.941Z,7.40
2023-02-12T06:36:19.931Z,7.38
2023-02-12T06:37:19.908Z,7.40
2023-02-12T06:38:19.912Z,7.37
2023-02-12T06:39:19.899Z,7.37
2023-02-12T06:40:19.878Z,7.37
2023-02-12T06:41:19.865Z,7.34
2023-02-12T06:42:19.852Z,7.34
2023-02-12T06:43:19.838Z,7.34
2023-02-12T06:44:19.847Z,7.35
2023-02-12T06:45:19.811Z,7.34
2023-02-12T06:46:19.856Z,7.34
2023-02-12T06:47:19.788Z,7.38
2023-02-12T06:48:19.781Z,7.44
2023-02-12T06:49:19.777Z,7.42
2023-02-12T06:50:19.756Z,7.47
2023-02-12T06:51:19.736Z,7.47
2023-02-12T06:52:19.735Z,7.47
2023-02-12T06:53:19.708Z,7.44
2023-02-12T06:54:19.713Z,7.44
2023-02-12T06:55:19.677Z,7.42
2023-02-12T06:56:19.681Z,7.41
2023-02-12T06:57:19.664Z,7.44
2023-02-12T06:58:19.650Z,7.45
2023-02-12T06:59:19.639Z,7.44
2023-02-12T07:00:19.624Z,7.42
2023-02-12T07:01:19.624Z,7.41
2023-02-12T07:02:19.596Z,7.42
2023-02-12T07:03:19.576Z,7.47
2023-02-12T07:04:19.661Z,7.52
2023-02-12T07:05:19.558Z,7.58
2023-02-12T07:06:19.591Z,7.53
2023-02-12T07:07:19.534Z,7.49
2023-02-12T07:08:19.516Z,7.49
2023-02-12T07:09:19.530Z,7.47
2023-02-12T07:10:19.504Z,7.44
2023-02-12T07:11:19.562Z,7.45
2023-02-12T07:12:19.475Z,7.44
2023-02-12T07:13:19.453Z,7.50
2023-02-12T07:14:19.457Z,7.56
2023-02-12T07:15:19.424Z,7.55
2023-02-12T07:16:19.485Z,7.53
2023-02-12T07:17:19.405Z,7.52
2023-02-12T07:18:19.393Z,7.53
2023-02-12T07:19:19.392Z,7.56
2023-02-12T07:20:19.367Z,7.66
2023-02-12T07:21:19.343Z,7.77
2023-02-12T07:22:19.341Z,7.81
2023-02-12T07:23:19.327Z,7.74
2023-02-12T07:24:19.338Z,7.67
2023-02-12T07:25:19.292Z,7.63
2023-02-12T07:26:19.294Z,7.60
2023-02-12T07:27:19.276Z,7.59
2023-02-12T07:28:19.302Z,7.58
2023-02-12T07:29:19.255Z,7.63
2023-02-12T07:30:19.233Z,7.67
2023-02-12T07:31:19.421Z,7.69
2023-02-12T07:32:19.212Z,7.67
2023-02-12T07:33:19.191Z,7.66
2023-02-12T07:34:19.191Z,7.72
2023-02-12T07:35:19.161Z,7.72
2023-02-12T07:36:19.181Z,7.72
2023-02-12T07:37:19.142Z,7.71
2023-02-12T07:38:19.130Z,7.72
2023-02-12T07:39:19.130Z,7.71
2023-02-12T07:40:19.112Z,7.71
2023-02-12T07:41:19.097Z,7.74
2023-02-12T07:42:19.078Z,7.84
2023-02-12T07:43:19.060Z,7.81
2023-02-12T07:44:19.069Z,7.78
2023-02-12T07:45:19.039Z,7.78
2023-02-12T07:46:19.134Z,7.77
2023-02-12T07:47:19.009Z,7.79
2023-02-12T07:48:18.999Z,7.79
2023-02-12T07:49:18.998Z,7.79
2023-02-12T07:50:18.981Z,7.81
2023-02-12T07:51:18.969Z,7.82
2023-02-12T07:52:18.950Z,7.82
2023-02-12T07:53:18.939Z,7.84
2023-02-12T07:54:18.941Z,7.85
2023-02-12T07:55:18.917Z,7.84
2023-02-12T07:56:18.907Z,7.84
2023-02-12T07:57:18.878Z,7.84
2023-02-12T07:58:18.869Z,7.84
2023-02-12T07:59:18.873Z,7.85
2023-02-12T08:00:18.856Z,7.84
2023-02-12T08:01:18.836Z,7.84
2023-02-12T08:02:18.871Z,7.92
2023-02-12T08:03:18.817Z,7.96
2023-02-12T08:04:18.894Z,7.93
2023-02-12T08:05:18.793Z,7.93
2023-02-12T08:06:18.779Z,7.97
2023-02-12T08:07:18.757Z,7.99
2023-02-12T08:08:18.756Z,7.97
2023-02-12T08:09:18.754Z,8.00
2023-02-12T08:10:18.728Z,8.00
2023-02-12T08:11:18.708Z,8.03
2023-02-12T08:12:18.706Z,8.04
2023-02-12T08:13:18.676Z,8.04
2023-02-12T08:14:18.696Z,8.04
2023-02-12T08:15:18.664Z,8.03
2023-02-12T08:16:18.674Z,8.04
2023-02-12T08:17:18.637Z,8.04
2023-02-12T08:18:18.616Z,8.12
2023-02-12T08:19:21.950Z,8.11
2023-02-12T08:20:19.587Z,8.11
2023-02-12T08:21:18.588Z,8.11
2023-02-12T08:22:18.576Z,8.14
2023-02-12T08:23:25.613Z,8.25
2023-02-12T08:24:18.555Z,8.22
2023-02-12T08:25:18.546Z,8.22
2023-02-12T08:26:18.512Z,8.21
2023-02-12T08:27:18.505Z,8.21
2023-02-12T08:28:18.542Z,8.21
2023-02-12T08:29:18.480Z,8.21
2023-02-12T08:30:18.473Z,8.21
2023-02-12T08:31:18.499Z,8.20
2023-02-12T08:32:18.526Z,8.18
2023-02-12T08:33:18.435Z,8.21
2023-02-12T08:34:18.463Z,8.20
2023-02-12T08:35:18.415Z,8.21
2023-02-12T08:36:18.386Z,8.21
2023-02-12T08:37:18.382Z,8.21
2023-02-12T08:38:18.350Z,8.22
2023-02-12T08:39:18.349Z,8.22
2023-02-12T08:40:18.341Z,8.26
2023-02-12T08:41:20.615Z,8.26
2023-02-12T08:42:18.301Z,8.28
2023-02-12T08:43:18.292Z,8.28
2023-02-12T08:44:18.300Z,8.29
2023-02-12T08:45:18.284Z,8.29
2023-02-12T08:46:18.305Z,8.33
2023-02-12T08:47:18.248Z,8.35
2023-02-12T08:48:18.229Z,8.33
2023-02-12T08:49:18.223Z,8.35
2023-02-12T08:50:18.216Z,8.35
2023-02-12T08:51:18.185Z,8.36
2023-02-12T08:52:18.178Z,8.39
2023-02-12T08:53:18.163Z,8.40
2023-02-12T08:54:18.208Z,8.40
2023-02-12T08:55:18.143Z,8.40
2023-02-12T08:56:18.128Z,8.40
2023-02-12T08:57:18.115Z,8.42
2023-02-12T08:58:18.093Z,8.45
2023-02-12T08:59:18.085Z,8.48
2023-02-12T09:00:18.092Z,8.51
2023-02-12T09:01:18.066Z,8.53
2023-02-12T09:02:18.054Z,8.53
2023-02-12T09:03:18.029Z,8.53
2023-02-12T09:04:18.187Z,8.51
2023-02-12T09:05:18.016Z,8.54
2023-02-12T09:06:17.991Z,8.53
2023-02-12T09:07:17.999Z,8.54
2023-02-12T09:08:17.969Z,8.62
2023-02-12T09:09:17.948Z,8.65
2023-02-12T09:10:17.942Z,8.68
2023-02-12T09:11:17.927Z,8.72
2023-02-12T09:12:17.909Z,8.76
2023-02-12T09:13:17.896Z,8.81
2023-02-12T09:14:17.877Z,8.84
2023-02-12T09:15:17.878Z,8.88
2023-02-12T09:16:17.882Z,8.93
2023-02-12T09:17:17.847Z,8.91
2023-02-12T09:18:17.826Z,8.90
2023-02-12T09:19:17.817Z,8.88
2023-02-12T09:20:17.825Z,8.87
2023-02-12T09:21:17.798Z,8.83
2023-02-12T09:22:17.780Z,8.87
2023-02-12T09:23:17.767Z,8.93
2023-02-12T09:24:17.797Z,8.93
2023-02-12T09:25:17.747Z,8.99
2023-02-12T09:26:17.727Z,9.01
2023-02-12T09:27:17.716Z,9.04
2023-02-12T09:28:17.719Z,9.05
2023-02-12T09:29:17.696Z,9.06
2023-02-12T09:30:17.688Z,9.13
2023-02-12T09:31:17.806Z,9.21
2023-02-12T09:32:17.647Z,9.25
2023-02-12T09:33:17.636Z,9.23
2023-02-12T09:34:17.627Z,9.32
2023-02-12T09:35:17.627Z,9.38
2023-02-12T09:36:17.623Z,9.40
2023-02-12T09:37:17.594Z,9.43
2023-02-12T09:38:17.568Z,9.46
2023-02-12T09:39:17.580Z,9.45
2023-02-12T09:40:17.557Z,9.46
2023-02-12T09:41:17.542Z,9.48
2023-02-12T09:42:17.524Z,9.49
2023-02-12T09:43:17.506Z,9.48
2023-02-12T09:44:17.498Z,9.46
2023-02-12T09:45:17.500Z,9.42
2023-02-12T09:46:17.510Z,9.42
2023-02-12T09:47:17.462Z,9.40
2023-02-12T09:48:17.466Z,9.35
2023-02-12T09:49:17.437Z,9.32
2023-02-12T09:50:17.435Z,9.30
2023-02-12T09:51:17.409Z,9.28
2023-02-12T09:52:17.415Z,9.34
2023-02-12T09:53:17.384Z,9.32
2023-02-12T09:54:17.376Z,9.34
2023-02-12T09:55:17.390Z,9.40
2023-02-12T09:56:17.357Z,9.42
2023-02-12T09:57:17.337Z,9.46
2023-02-12T09:58:17.329Z,9.49
2023-02-12T09:59:17.308Z,9.48
2023-02-12T10:00:17.310Z,9.48
2023-02-12T10:01:17.322Z,9.50
2023-02-12T10:02:17.280Z,9.48
2023-02-12T10:03:17.268Z,9.40
2023-02-12T10:04:17.261Z,9.40
2023-02-12T10:05:17.269Z,9.43
2023-02-12T10:06:17.232Z,9.53
2023-02-12T10:07:17.222Z,9.52
2023-02-12T10:08:17.209Z,9.56
2023-02-12T10:09:17.219Z,9.63
2023-02-12T10:10:17.193Z,9.68
2023-02-12T10:11:17.175Z,9.78
2023-02-12T10:12:17.149Z,9.83
2023-02-12T10:13:17.139Z,9.89
2023-02-12T10:14:17.130Z,9.94
2023-02-12T10:15:17.121Z,9.93
2023-02-12T10:16:17.214Z,9.91
2023-02-12T10:17:17.079Z,9.81
2023-02-12T10:18:17.072Z,9.75
2023-02-12T10:19:17.060Z,9.76
2023-02-12T10:20:17.061Z,9.81
2023-02-12T10:21:17.030Z,9.85
2023-02-12T10:22:17.020Z,9.96
2023-02-12T10:23:16.999Z,10.01
2023-02-12T10:24:17.023Z,10.06
2023-02-12T10:25:16.990Z,10.04
2023-02-12T10:26:16.969Z,10.01
2023-02-12T10:27:16.993Z,9.86
2023-02-12T10:28:16.997Z,9.86
2023-02-12T10:29:16.928Z,9.88
2023-02-12T10:30:16.915Z,9.91
2023-02-12T10:31:16.969Z,9.91
2023-02-12T10:32:16.906Z,9.86
2023-02-12T10:33:16.880Z,9.88
2023-02-12T10:34:16.864Z,9.88
2023-02-12T10:35:16.844Z,9.86
2023-02-12T10:36:16.846Z,9.88
2023-02-12T10:37:16.813Z,9.89
2023-02-12T10:38:16.806Z,9.83
2023-02-12T10:39:16.783Z,9.88
2023-02-12T10:40:16.819Z,9.85
2023-02-12T10:41:16.774Z,9.89
2023-02-12T10:42:16.760Z,9.93
2023-02-12T10:43:16.734Z,9.97
2023-02-12T10:44:16.723Z,10.00
2023-02-12T10:45:16.729Z,10.06
2023-02-12T10:46:16.742Z,10.10
2023-02-12T10:47:16.680Z,10.14
2023-02-12T10:48:17.038Z,10.12
2023-02-12T10:49:16.654Z,10.09
2023-02-12T10:50:16.640Z,10.06
2023-02-12T10:51:16.643Z,10.07
2023-02-12T10:52:16.624Z,10.07
2023-02-12T10:53:16.607Z,10.04
2023-02-12T10:54:16.619Z,10.04
2023-02-12T10:55:16.570Z,9.97
2023-02-12T10:56:16.620Z,9.94
2023-02-12T10:57:16.546Z,9.96
2023-02-12T10:58:16.539Z,9.96
2023-02-12T10:59:16.517Z,10.00
2023-02-12T11:00:16.507Z,10.04
2023-02-12T11:01:16.497Z,10.06
2023-02-12T11:02:16.486Z,10.03
2023-02-12T11:03:16.467Z,10.00
2023-02-12T11:04:16.457Z,10.01
2023-02-12T11:05:16.457Z,10.07
2023-02-12T11:06:16.449Z,10.07
2023-02-12T11:07:16.410Z,10.04
2023-02-12T11:08:16.397Z,10.03
2023-02-12T11:09:16.386Z,10.04
2023-02-12T11:10:16.376Z,10.03
2023-02-12T11:11:16.384Z,10.01
2023-02-12T11:12:16.365Z,10.09
2023-02-12T11:13:16.335Z,10.17
2023-02-12T11:14:16.331Z,10.12
2023-02-12T11:15:16.306Z,10.10
2023-02-12T11:16:16.351Z,10.03
2023-02-12T11:17:16.292Z,9.99
2023-02-12T11:18:16.270Z,9.86
2023-02-12T11:19:16.253Z,9.91
2023-02-12T11:20:16.261Z,9.99
2023-02-12T11:21:16.244Z,10.00
2023-02-12T11:22:16.223Z,10.01
2023-02-12T11:23:16.198Z,10.06
2023-02-12T11:24:16.186Z,10.06
2023-02-12T11:25:16.216Z,10.07
2023-02-12T11:26:16.176Z,10.17
2023-02-12T11:27:16.210Z,10.25
2023-02-12T11:28:16.175Z,10.37
2023-02-12T11:29:16.166Z,10.43
2023-02-12T11:30:16.114Z,10.51
2023-02-12T11:31:16.213Z,10.55
2023-02-12T11:32:16.082Z,10.62
2023-02-12T11:33:16.083Z,10.71
2023-02-12T11:34:16.053Z,10.80
2023-02-12T11:35:16.045Z,10.92
2023-02-12T11:36:16.032Z,10.96
2023-02-12T11:37:16.024Z,10.96
2023-02-12T11:38:16.004Z,10.96
2023-02-12T11:39:16.015Z,11.02
2023-02-12T11:40:15.982Z,10.98
2023-02-12T11:41:15.980Z,10.89
2023-02-12T11:42:15.947Z,10.88
2023-02-12T11:43:15.944Z,10.83
2023-02-12T11:44:15.926Z,10.89
2023-02-12T11:45:15.914Z,10.92
2023-02-12T11:46:16.031Z,10.92
2023-02-12T11:47:15.894Z,10.91
2023-02-12T11:48:15.888Z,10.91
2023-02-12T11:49:15.868Z,10.94
2023-02-12T11:50:15.876Z,10.96
2023-02-12T11:51:15.861Z,10.98
2023-02-12T11:52:15.816Z,10.98
2023-02-12T11:53:15.815Z,10.83
2023-02-12T11:54:15.815Z,10.83
2023-02-12T11:55:15.784Z,10.88
2023-02-12T11:56:15.777Z,10.89
2023-02-12T11:57:15.755Z,10.89
2023-02-12T11:58:15.739Z,10.92
2023-02-12T11:59:15.723Z,10.99
2023-02-12T12:00:15.710Z,11.09
2023-02-12T12:01:17.003Z,11.07
2023-02-12T12:02:15.842Z,11.03
2023-02-12T12:03:15.728Z,11.09
2023-02-12T12:04:15.655Z,11.06
2023-02-12T12:05:15.652Z,10.96
2023-02-12T12:06:15.644Z,10.94
2023-02-12T12:07:15.649Z,10.94
2023-02-12T12:08:16.756Z,10.91
2023-02-12T12:09:15.593Z,10.92
2023-02-12T12:10:15.581Z,10.94
2023-02-12T12:11:15.581Z,10.95
2023-02-12T12:12:15.551Z,10.99
2023-02-12T12:13:15.550Z,11.03
2023-02-12T12:14:15.532Z,11.10
2023-02-12T12:15:15.524Z,11.13
2023-02-12T12:16:15.588Z,11.19
2023-02-12T12:17:15.490Z,11.21
2023-02-12T12:18:15.472Z,11.20
2023-02-12T12:19:15.470Z,11.14
2023-02-12T12:20:15.460Z,11.09
2023-02-12T12:21:15.460Z,11.09
2023-02-12T12:22:15.444Z,11.13
2023-02-12T12:23:15.445Z,11.11
2023-02-12T12:24:15.401Z,11.14
2023-02-12T12:25:15.404Z,11.10
2023-02-12T12:26:15.391Z,10.99
2023-02-12T12:27:15.378Z,10.86
2023-02-12T12:28:15.371Z,10.78
2023-02-12T12:29:15.367Z,10.70
2023-02-12T12:30:15.327Z,10.65
2023-02-12T12:31:15.319Z,10.68
2023-02-12T12:32:15.300Z,10.71
2023-02-12T12:33:15.290Z,10.65
2023-02-12T12:34:15.290Z,10.62
2023-02-12T12:35:15.290Z,10.63
2023-02-12T12:36:15.241Z,10.66
2023-02-12T12:37:15.250Z,10.70
2023-02-12T12:38:15.219Z,10.74
2023-02-12T12:39:15.209Z,10.78
2023-02-12T12:40:15.200Z,10.80
2023-02-12T12:41:15.189Z,10.88
2023-02-12T12:42:15.179Z,10.94
2023-02-12T12:43:15.159Z,10.96
2023-02-12T12:44:15.138Z,11.02
2023-02-12T12:45:15.141Z,10.98
2023-02-12T12:46:15.152Z,10.91
2023-02-12T12:47:15.148Z,10.81
2023-02-12T12:48:15.093Z,10.80
2023-02-12T12:49:15.097Z,10.84
2023-02-12T12:50:15.067Z,10.86
2023-02-12T12:51:15.061Z,10.84
2023-02-12T12:52:15.048Z,10.83
2023-02-12T12:53:15.038Z,10.86
2023-02-12T12:54:15.012Z,10.86
2023-02-12T12:55:15.008Z,10.92
2023-02-12T12:56:14.992Z,10.99
2023-02-12T12:57:14.996Z,11.03
2023-02-12T12:58:14.967Z,11.10
2023-02-12T12:59:14.948Z,11.14
2023-02-12T13:00:14.937Z,11.17
2023-02-12T13:01:14.977Z,11.19
2023-02-12T13:02:14.962Z,11.25
2023-02-12T13:03:14.906Z,11.27
2023-02-12T13:04:14.895Z,11.29
2023-02-12T13:05:14.880Z,11.31
2023-02-12T13:06:14.860Z,11.28
2023-02-12T13:07:14.874Z,11.27
2023-02-12T13:08:14.830Z,11.27
2023-02-12T13:09:14.830Z,11.29
2023-02-12T13:10:14.808Z,11.32
2023-02-12T13:11:14.809Z,11.29
2023-02-12T13:12:14.802Z,11.24
2023-02-12T13:13:14.780Z,11.19
2023-02-12T13:14:14.757Z,11.14
2023-02-12T13:15:14.751Z,11.13
2023-02-12T13:16:14.772Z,11.13
2023-02-12T13:17:14.734Z,11.09
2023-02-12T13:18:14.716Z,11.07
2023-02-12T13:19:14.701Z,11.06
2023-02-12T13:20:14.694Z,11.06
2023-02-12T13:21:14.678Z,11.06
2023-02-12T13:22:14.682Z,10.99
2023-02-12T13:23:14.648Z,10.95
2023-02-12T13:24:14.641Z,10.89
2023-02-12T13:25:14.627Z,10.84
2023-02-12T13:26:14.611Z,10.83
2023-02-12T13:27:14.611Z,10.81
2023-02-12T13:28:14.676Z,10.80
2023-02-12T13:29:14.586Z,10.77
2023-02-12T13:30:14.571Z,10.74
2023-02-12T13:31:32.069Z,10.73
2023-02-12T13:32:15.591Z,10.74
2023-02-12T13:33:14.520Z,10.77
2023-02-12T13:34:14.500Z,10.77
2023-02-12T13:35:14.496Z,10.78
2023-02-12T13:36:14.476Z,10.78
2023-02-12T13:37:14.469Z,10.73
2023-02-12T13:38:14.457Z,10.66
2023-02-12T13:39:14.438Z,10.62
2023-02-12T13:40:14.431Z,10.62
2023-02-12T13:41:14.418Z,10.63
2023-02-12T13:42:14.387Z,10.63
2023-02-12T13:43:14.406Z,10.68
2023-02-12T13:44:14.367Z,10.70
2023-02-12T13:45:14.363Z,10.68
2023-02-12T13:46:14.378Z,10.66
2023-02-12T13:47:14.326Z,10.66
2023-02-12T13:48:14.327Z,10.70
2023-02-12T13:49:14.307Z,10.68
2023-02-12T13:50:14.286Z,10.71
2023-02-12T13:51:14.281Z,10.74
2023-02-12T13:52:14.280Z,10.74
2023-02-12T13:53:14.260Z,10.74
2023-02-12T13:54:14.226Z,10.73
2023-02-12T13:55:14.219Z,10.74
2023-02-12T13:56:14.206Z,10.73
2023-02-12T13:57:14.198Z,10.62
2023-02-12T13:58:14.192Z,10.58
2023-02-12T13:59:14.166Z,10.58
2023-02-12T14:00:14.155Z,10.59
2023-02-12T14:01:14.152Z,10.58
2023-02-12T14:02:14.153Z,10.60
2023-02-12T14:03:14.128Z,10.62
2023-02-12T14:04:14.104Z,10.63
2023-02-12T14:05:14.086Z,10.62
2023-02-12T14:06:14.101Z,10.65
2023-02-12T14:07:14.059Z,10.65
2023-02-12T14:08:14.065Z,10.65
2023-02-12T14:09:14.034Z,10.66
2023-02-12T14:10:14.023Z,10.68
2023-02-12T14:11:14.014Z,10.70
2023-02-12T14:12:13.992Z,10.65
2023-02-12T14:13:13.987Z,10.59
2023-02-12T14:14:13.972Z,10.62
2023-02-12T14:15:13.988Z,10.63
2023-02-12T14:16:13.968Z,10.63
2023-02-12T14:17:13.921Z,10.59
2023-02-12T14:18:13.922Z,10.56
2023-02-12T14:19:13.894Z,10.55
2023-02-12T14:20:13.908Z,10.52
2023-02-12T14:21:13.904Z,10.51
2023-02-12T14:22:13.865Z,10.52
2023-02-12T14:23:13.851Z,10.53
2023-02-12T14:24:20.900Z,10.53
2023-02-12T14:25:13.858Z,10.51
2023-02-12T14:26:13.805Z,10.47
2023-02-12T14:27:13.797Z,10.46
2023-02-12T14:28:13.829Z,10.47
2023-02-12T14:29:13.767Z,10.47
2023-02-12T14:30:13.807Z,10.47
2023-02-12T14:31:13.821Z,10.51
2023-02-12T14:32:13.724Z,10.53
2023-02-12T14:33:13.739Z,10.53
2023-02-12T14:34:13.704Z,10.55
2023-02-12T14:35:13.688Z,10.56
2023-02-12T14:36:13.675Z,10.58
2023-02-12T14:37:13.665Z,10.60
2023-02-12T14:38:13.655Z,10.62
2023-02-12T14:39:13.635Z,10.63
2023-02-12T14:40:13.617Z,10.60
2023-02-12T14:41:13.607Z,10.60
2023-02-12T14:42:13.587Z,10.60
2023-02-12T14:43:13.593Z,10.56
2023-02-12T14:44:13.566Z,10.56
2023-02-12T14:45:13.554Z,10.55
2023-02-12T14:46:13.612Z,10.53
2023-02-12T14:47:13.524Z,10.52
2023-02-12T14:48:13.527Z,10.53
2023-02-12T14:49:13.504Z,10.52
2023-02-12T14:50:13.482Z,10.51
2023-02-12T14:51:13.475Z,10.47
2023-02-12T14:52:13.473Z,10.46
2023-02-12T14:53:13.451Z,10.47
2023-02-12T14:54:13.432Z,10.46
2023-02-12T14:55:13.431Z,10.47
2023-02-12T14:56:13.401Z,10.46
2023-02-12T14:57:13.401Z,10.46
2023-02-12T14:58:13.389Z,10.46
2023-02-12T14:59:13.370Z,10.40
2023-02-12T15:00:13.350Z,10.36
2023-02-12T15:01:13.361Z,10.33
2023-02-12T15:02:13.322Z,10.32
2023-02-12T15:03:13.343Z,10.36
2023-02-12T15:04:13.321Z,10.36
2023-02-12T15:05:13.312Z,10.33
2023-02-12T15:06:13.279Z,10.30
2023-02-12T15:07:13.261Z,10.30
2023-02-12T15:08:13.248Z,10.25
2023-02-12T15:09:13.248Z,10.25
2023-02-12T15:10:13.220Z,10.24
2023-02-12T15:11:13.208Z,10.22
2023-02-12T15:12:13.189Z,10.25
2023-02-12T15:13:13.181Z,10.25
2023-02-12T15:14:13.168Z,10.28
2023-02-12T15:15:13.165Z,10.30
2023-02-12T15:16:13.188Z,10.32
2023-02-12T15:17:13.127Z,10.32
2023-02-12T15:18:13.108Z,10.33
2023-02-12T15:19:13.108Z,10.32
2023-02-12T15:20:13.078Z,10.32
2023-02-12T15:21:13.078Z,10.32
2023-02-12T15:22:13.059Z,10.28
2023-02-12T15:23:13.038Z,10.26
2023-02-12T15:24:13.042Z,10.25
2023-02-12T15:25:13.029Z,10.26
2023-02-12T15:26:13.008Z,10.26
2023-02-12T15:27:12.990Z,10.25
2023-02-12T15:28:13.001Z,10.24
2023-02-12T15:29:12.979Z,10.22
2023-02-12T15:30:20.962Z,10.21
2023-02-12T15:31:14.091Z,10.18
2023-02-12T15:32:12.919Z,10.15
2023-02-12T15:33:14.510Z,10.15
2023-02-12T15:34:12.941Z,10.18
2023-02-12T15:35:12.890Z,10.21
2023-02-12T15:36:12.868Z,10.24
2023-02-12T15:37:12.868Z,10.26
2023-02-12T15:38:12.861Z,10.28
2023-02-12T15:39:12.838Z,10.25
2023-02-12T15:40:12.818Z,10.25
2023-02-12T15:41:12.818Z,10.25
2023-02-12T15:42:12.788Z,10.24
2023-02-12T15:43:12.786Z,10.24
2023-02-12T15:44:12.775Z,10.24
2023-02-12T15:45:12.763Z,10.22
2023-02-12T15:46:12.760Z,10.22
2023-02-12T15:47:12.779Z,10.21
2023-02-12T15:48:12.721Z,10.19
2023-02-12T15:49:12.715Z,10.22
2023-02-12T15:50:12.689Z,10.25
2023-02-12T15:51:12.685Z,10.26
2023-02-12T15:52:12.657Z,10.28
2023-02-12T15:53:12.646Z,10.25
2023-02-12T15:54:12.646Z,10.22
2023-02-12T15:55:12.630Z,10.19
2023-02-12T15:56:12.611Z,10.17
2023-02-12T15:57:12.605Z,10.17
2023-02-12T15:58:12.587Z,10.14
2023-02-12T15:59:12.577Z,10.10
2023-02-12T16:00:12.547Z,10.07
2023-02-12T16:01:12.547Z,10.04
2023-02-12T16:02:12.526Z,10.03
2023-02-12T16:03:12.517Z,10.01
2023-02-12T16:04:12.573Z,10.00
2023-02-12T16:05:12.488Z,9.99
2023-02-12T16:06:12.475Z,9.96
2023-02-12T16:07:12.464Z,9.94
2023-02-12T16:08:12.445Z,9.94
2023-02-12T16:09:12.460Z,9.91
2023-02-12T16:10:12.419Z,9.89
2023-02-12T16:11:12.409Z,9.88
2023-02-12T16:12:12.394Z,9.89
2023-02-12T16:13:12.384Z,9.88
2023-02-12T16:14:12.375Z,9.86
2023-02-12T16:15:12.355Z,9.86
2023-02-12T16:16:12.400Z,9.86
2023-02-12T16:17:12.335Z,9.85
2023-02-12T16:18:12.353Z,9.86
2023-02-12T16:19:12.305Z,9.86
2023-02-12T16:20:12.284Z,9.83
2023-02-12T16:21:12.284Z,9.82
2023-02-12T16:22:12.264Z,9.81
2023-02-12T16:23:12.254Z,9.79
2023-02-12T16:24:12.243Z,9.76
2023-02-12T16:25:12.224Z,9.76
2023-02-12T16:26:12.205Z,9.75
2023-02-12T16:27:12.198Z,9.73
2023-02-12T16:28:12.229Z,9.71
2023-02-12T16:29:12.193Z,9.71
2023-02-12T16:30:12.172Z,9.71
2023-02-12T16:31:12.263Z,9.68
2023-02-12T16:32:12.141Z,9.67
2023-02-12T16:33:12.115Z,9.64
2023-02-12T16:34:12.136Z,9.66
2023-02-12T16:35:12.162Z,9.66
2023-02-12T16:36:12.073Z,9.67
2023-02-12T16:37:12.063Z,9.68
2023-02-12T16:38:12.046Z,9.68
2023-02-12T16:39:12.042Z,9.70
2023-02-12T16:40:12.046Z,9.68
2023-02-12T16:41:12.014Z,9.71
2023-02-12T16:42:11.996Z,9.73
2023-02-12T16:43:11.992Z,9.76
2023-02-12T16:44:11.980Z,9.75
2023-02-12T16:45:12.002Z,9.79
2023-02-12T16:46:12.017Z,9.79
2023-02-12T16:47:11.955Z,9.78
2023-02-12T16:48:11.911Z,9.75
2023-02-12T16:49:11.942Z,9.76
2023-02-12T16:50:11.902Z,9.75
2023-02-12T16:51:11.881Z,9.73
2023-02-12T16:52:11.864Z,9.73
2023-02-12T16:53:11.869Z,9.73
2023-02-12T16:54:11.840Z,9.71
2023-02-12T16:55:11.850Z,9.71
2023-02-12T16:56:11.822Z,9.70
2023-02-12T16:57:11.812Z,9.67
2023-02-12T16:58:11.793Z,9.67
2023-02-12T16:59:11.780Z,9.67
2023-02-12T17:00:11.780Z,9.66
2023-02-12T17:01:11.831Z,9.64
2023-02-12T17:02:11.750Z,9.63
2023-02-12T17:03:11.755Z,9.61
2023-02-12T17:04:11.721Z,9.60
2023-02-12T17:05:11.711Z,9.60
2023-02-12T17:06:11.694Z,9.58
2023-02-12T17:07:11.691Z,9.58
2023-02-12T17:08:11.662Z,9.58
2023-02-12T17:09:11.656Z,9.57
2023-02-12T17:10:11.646Z,9.58
2023-02-12T17:11:11.634Z,9.58
2023-02-12T17:12:11.626Z,9.60
2023-02-12T17:13:11.614Z,9.58
2023-02-12T17:14:11.582Z,9.58
2023-02-12T17:15:11.581Z,9.58
2023-02-12T17:16:14.492Z,9.56
2023-02-12T17:17:12.550Z,9.56
2023-02-12T17:18:11.530Z,9.56
2023-02-12T17:19:11.520Z,9.56
2023-02-12T17:20:11.525Z,9.53
2023-02-12T17:21:11.491Z,9.53
2023-02-12T17:22:11.481Z,9.50
2023-02-12T17:23:11.475Z,9.52
2023-02-12T17:24:11.448Z,9.53
2023-02-12T17:25:11.444Z,9.52
2023-02-12T17:26:11.430Z,9.52
2023-02-12T17:27:11.410Z,9.50
2023-02-12T17:28:11.419Z,9.50
2023-02-12T17:29:11.393Z,9.49
2023-02-12T17:30:11.398Z,9.48
2023-02-12T17:31:11.443Z,9.48
2023-02-12T17:32:11.412Z,9.46
2023-02-12T17:33:11.339Z,9.45
2023-02-12T17:34:11.322Z,9.45
2023-02-12T17:35:11.324Z,9.42
2023-02-12T17:36:11.308Z,9.43
2023-02-12T17:37:11.284Z,9.40
2023-02-12T17:38:11.268Z,9.43
2023-02-12T17:39:11.258Z,9.43
2023-02-12T17:40:11.269Z,9.46
2023-02-12T17:41:11.227Z,9.46
2023-02-12T17:42:11.240Z,9.46
2023-02-12T17:43:11.248Z,9.45
2023-02-12T17:44:11.200Z,9.43
2023-02-12T17:45:11.192Z,9.43
2023-02-12T17:46:11.234Z,9.40
2023-02-12T17:47:11.151Z,9.42
2023-02-12T17:48:11.155Z,9.39
2023-02-12T17:49:11.132Z,9.38
2023-02-12T17:50:11.132Z,9.34
2023-02-12T17:51:11.117Z,9.31
2023-02-12T17:52:11.089Z,9.28
2023-02-12T17:53:11.090Z,9.25
2023-02-12T17:54:11.071Z,9.27
2023-02-12T17:55:11.049Z,9.28
2023-02-12T17:56:11.056Z,9.30
2023-02-12T17:57:12.383Z,9.31
2023-02-12T17:58:11.007Z,9.32
2023-02-12T17:59:10.994Z,9.31
2023-02-12T18:00:10.990Z,9.30
2023-02-12T18:01:10.996Z,9.30
2023-02-12T18:02:10.957Z,9.31
2023-02-12T18:03:10.944Z,9.31
2023-02-12T18:04:11.031Z,9.28
2023-02-12T18:05:10.916Z,9.28
2023-02-12T18:06:10.922Z,9.25
2023-02-12T18:07:10.896Z,9.21
2023-02-12T18:08:10.887Z,9.16
2023-02-12T18:09:10.867Z,9.12
2023-02-12T18:10:11.664Z,9.06
2023-02-12T18:11:10.855Z,9.04
2023-02-12T18:12:10.863Z,9.01
2023-02-12T18:13:10.821Z,8.99
2023-02-12T18:14:10.817Z,8.96
2023-02-12T18:15:10.793Z,8.97
2023-02-12T18:16:10.793Z,9.01
2023-02-12T18:17:10.774Z,9.05
2023-02-12T18:18:10.764Z,9.09
2023-02-12T18:19:10.737Z,9.05
2023-02-12T18:20:10.728Z,9.05
2023-02-12T18:21:10.749Z,9.04
2023-02-12T18:22:10.694Z,9.02